Time;durP1;ratioP1;P1;durP2;ratioP2;P2;SDS_P1;SDS_P2;PMS_P1;PMS_P2;Temp;Humidity;BMP_temperature;BMP_pressure;BME280_temperature;BME280_humidity;BME280_pressure;Samples;Min_cycle;Max_cycle;Signal;HPM_P1;HPM_P2
2021/12/14 00:00:37;;;;;;;4.63;4.23;;;;;;;;;;4991206;28;20286;-59
2021/12/14 00:03:03;;;;;;;4.33;3.80;;;;;;;;;;4986226;28;20233;-58
2021/12/14 00:05:29;;;;;;;4.17;3.73;;;;;;;;;;4969673;28;20282;-58
2021/12/14 00:07:56;;;;;;;6.00;3.93;;;;;;;;;;4973650;28;20233;-59
2021/12/14 00:13:08;;;;;;;5.57;4.10;;;;;;;;;;4988364;28;20302;-58
2021/12/14 00:15:34;;;;;;;4.97;4.47;;;;;;;;;;4978329;28;20233;-58
2021/12/14 00:18:02;;;;;;;4.80;4.30;;;;;;;;;;4987275;28;20253;-59
2021/12/14 00:20:28;;;;;;;5.83;4.30;;;;;;;;;;4987216;28;20375;-58
2021/12/14 00:25:40;;;;;;;4.60;4.20;;;;;;;;;;4994929;28;20240;-59
2021/12/14 00:28:07;;;;;;;4.40;4.00;;;;;;;;;;4999399;28;21501;-58
2021/12/14 00:30:35;;;;;;;4.60;4.10;;;;;;;;;;4997881;28;20716;-58
2021/12/14 00:33:01;;;;;;;4.80;3.83;;;;;;;;;;4999579;28;20241;-59
2021/12/14 00:35:27;;;;;;;5.43;4.30;;;;;;;;;;4993407;28;20228;-59
2021/12/14 00:37:53;;;;;;;4.63;4.23;;;;;;;;;;4997905;28;20302;-59
2021/12/14 00:40:19;;;;;;;5.27;4.70;;;;;;;;;;5004186;28;20233;-58
2021/12/14 00:42:46;;;;;;;4.60;4.03;;;;;;;;;;4979544;28;20303;-59
2021/12/14 00:45:12;;;;;;;4.67;4.20;;;;;;;;;;4987525;28;20837;-58
2021/12/14 00:47:38;;;;;;;5.17;4.17;;;;;;;;;;4993492;28;20322;-59
2021/12/14 00:50:04;;;;;;;5.47;4.27;;;;;;;;;;5004564;28;20407;-59
2021/12/14 00:52:30;;;;;;;5.50;4.20;;;;;;;;;;5001786;28;20228;-58
2021/12/14 00:54:56;;;;;;;6.33;4.20;;;;;;;;;;5005766;28;20286;-59
2021/12/14 00:57:22;;;;;;;4.43;3.80;;;;;;;;;;5008161;28;20732;-59
2021/12/14 00:59:48;;;;;;;7.17;4.33;;;;;;;;;;5006024;28;20229;-58
2021/12/14 01:02:15;;;;;;;6.90;4.17;;;;;;;;;;4998414;28;20653;-58
2021/12/14 01:04:46;;;;;;;5.23;4.20;;;;;;;;;;4999862;28;20826;-59
2021/12/14 01:07:12;;;;;;;4.43;3.87;;;;;;;;;;4999545;28;20344;-58
2021/12/14 01:09:39;;;;;;;6.03;3.80;;;;;;;;;;5003484;28;20229;-59
2021/12/14 01:12:09;;;;;;;5.33;4.00;;;;;;;;;;5003578;28;20232;-59
2021/12/14 01:14:43;;;;;;;4.33;3.83;;;;;;;;;;5007548;28;20258;-59
2021/12/14 01:17:13;;;;;;;5.43;4.37;;;;;;;;;;4995202;28;20232;-59
2021/12/14 01:19:41;;;;;;;4.83;3.80;;;;;;;;;;5005475;28;20703;-59
2021/12/14 01:27:13;;;;;;;5.97;4.30;;;;;;;;;;5007416;28;20228;-59
2021/12/14 01:29:39;;;;;;;6.87;4.30;;;;;;;;;;5003888;28;20233;-59
2021/12/14 01:32:05;;;;;;;4.50;4.10;;;;;;;;;;5010106;28;20610;-58
2021/12/14 01:34:32;;;;;;;4.83;4.33;;;;;;;;;;5011213;28;20746;-58
2021/12/14 01:37:04;;;;;;;5.03;4.37;;;;;;;;;;5011734;28;20237;-58
2021/12/14 01:42:23;;;;;;;5.10;4.60;;;;;;;;;;5011661;28;20320;-59
2021/12/14 01:44:57;;;;;;;5.17;4.57;;;;;;;;;;5006051;28;20241;-58
2021/12/14 01:47:27;;;;;;;5.27;4.50;;;;;;;;;;5005205;28;20808;-59
2021/12/14 01:49:53;;;;;;;5.40;4.90;;;;;;;;;;5007338;28;20706;-59
2021/12/14 01:52:21;;;;;;;6.97;4.63;;;;;;;;;;5009376;28;20270;-59
2021/12/14 01:54:50;;;;;;;5.23;4.73;;;;;;;;;;5003239;28;20243;-58
2021/12/14 01:57:16;;;;;;;6.77;5.07;;;;;;;;;;4997161;28;20241;-59
2021/12/14 01:59:43;;;;;;;5.77;5.00;;;;;;;;;;4997381;28;20233;-59
2021/12/14 02:04:42;;;;;;;6.00;5.40;;;;;;;;;;5001782;28;20236;-57
2021/12/14 02:07:08;;;;;;;6.17;5.50;;;;;;;;;;5004978;28;20236;-58
2021/12/14 02:09:35;;;;;;;5.83;5.23;;;;;;;;;;5000638;28;20225;-59
2021/12/14 02:12:02;;;;;;;6.50;5.63;;;;;;;;;;5000453;28;20228;-58
2021/12/14 02:14:28;;;;;;;8.87;6.10;;;;;;;;;;4997612;28;20371;-59
2021/12/14 02:16:55;;;;;;;6.10;5.50;;;;;;;;;;5009448;28;20645;-59
2021/12/14 02:19:21;;;;;;;6.83;5.97;;;;;;;;;;5004706;28;20288;-59
2021/12/14 02:21:48;;;;;;;7.13;5.93;;;;;;;;;;5002302;28;21019;-59
2021/12/14 02:24:14;;;;;;;8.17;6.10;;;;;;;;;;5011551;28;20769;-59
2021/12/14 02:26:41;;;;;;;6.70;6.03;;;;;;;;;;5001069;28;20299;-59
2021/12/14 02:29:07;;;;;;;9.10;7.33;;;;;;;;;;5008507;28;20248;-58
2021/12/14 02:31:34;;;;;;;7.40;6.63;;;;;;;;;;5006622;28;20233;-59
2021/12/14 02:34:02;;;;;;;8.70;7.30;;;;;;;;;;5006150;28;20236;-59
2021/12/14 02:36:33;;;;;;;9.43;7.60;;;;;;;;;;5005367;28;20245;-58
2021/12/14 02:39:12;;;;;;;9.00;7.23;;;;;;;;;;5006942;28;20648;-59
2021/12/14 02:41:49;;;;;;;9.37;7.50;;;;;;;;;;5001209;28;20368;-58
2021/12/14 02:44:15;;;;;;;9.57;7.73;;;;;;;;;;5000789;28;20244;-58
2021/12/14 02:46:43;;;;;;;9.73;7.90;;;;;;;;;;5003130;28;20625;-58
2021/12/14 02:49:13;;;;;;;10.23;8.33;;;;;;;;;;5001889;28;20225;-59
2021/12/14 02:51:46;;;;;;;9.47;8.40;;;;;;;;;;5006209;28;20319;-59
2021/12/14 02:54:13;;;;;;;11.13;8.23;;;;;;;;;;5005343;28;20704;-59
2021/12/14 02:56:40;;;;;;;10.47;8.47;;;;;;;;;;4998802;28;20225;-58
2021/12/14 02:59:07;;;;;;;11.40;9.43;;;;;;;;;;5007770;28;20309;-59
2021/12/14 03:01:33;;;;;;;12.37;9.10;;;;;;;;;;5006630;28;20245;-58
2021/12/14 03:04:00;;;;;;;12.77;9.10;;;;;;;;;;5003605;28;20607;-58
2021/12/14 03:06:27;;;;;;;11.17;9.50;;;;;;;;;;4995995;28;20232;-58
2021/12/14 03:09:08;;;;;;;11.83;9.20;;;;;;;;;;5011087;28;20714;-58
2021/12/14 03:11:34;;;;;;;11.63;9.73;;;;;;;;;;4988366;28;20780;-58
2021/12/14 03:14:00;;;;;;;11.90;9.30;;;;;;;;;;5005100;28;21882;-59
2021/12/14 03:16:28;;;;;;;12.57;10.73;;;;;;;;;;5010205;28;20225;-58
2021/12/14 03:18:55;;;;;;;12.20;9.67;;;;;;;;;;5002292;28;20241;-59
2021/12/14 03:21:22;;;;;;;13.23;10.80;;;;;;;;;;4995219;28;20233;-58
2021/12/14 03:23:49;;;;;;;13.83;10.27;;;;;;;;;;5000838;28;20738;-58
2021/12/14 03:26:16;;;;;;;14.57;11.13;;;;;;;;;;5000647;28;20740;-58
2021/12/14 03:28:45;;;;;;;13.37;10.93;;;;;;;;;;4997848;28;20271;-59
2021/12/14 03:31:11;;;;;;;14.60;11.10;;;;;;;;;;4977033;28;20257;-59
2021/12/14 03:33:39;;;;;;;14.23;11.50;;;;;;;;;;5002475;28;20331;-59
2021/12/14 03:36:07;;;;;;;15.17;11.50;;;;;;;;;;4997144;28;20225;-59
2021/12/14 03:38:43;;;;;;;13.67;11.33;;;;;;;;;;5001140;28;20229;-59
2021/12/14 03:41:13;;;;;;;13.90;10.83;;;;;;;;;;5001540;28;20237;-59
2021/12/14 03:43:41;;;;;;;14.60;11.50;;;;;;;;;;4999527;28;20263;-59
2021/12/14 03:46:07;;;;;;;15.10;11.83;;;;;;;;;;5003962;28;20722;-59
2021/12/14 03:48:33;;;;;;;15.00;11.67;;;;;;;;;;4995934;28;20237;-58
2021/12/14 03:50:59;;;;;;;15.30;11.97;;;;;;;;;;4998415;28;21941;-58
2021/12/14 03:53:26;;;;;;;13.97;11.13;;;;;;;;;;4999855;28;20237;-58
2021/12/14 03:55:54;;;;;;;15.33;11.47;;;;;;;;;;4997758;28;20225;-58
2021/12/14 03:58:21;;;;;;;14.37;11.63;;;;;;;;;;4996093;28;20250;-58
2021/12/14 04:00:53;;;;;;;14.30;11.13;;;;;;;;;;5008655;28;20237;-58
2021/12/14 04:03:19;;;;;;;15.80;12.07;;;;;;;;;;5002662;28;20638;-58
2021/12/14 04:05:45;;;;;;;14.80;11.90;;;;;;;;;;4987482;28;20243;-58
2021/12/14 04:08:11;;;;;;;14.40;11.10;;;;;;;;;;5001859;28;20256;-58
2021/12/14 04:10:38;;;;;;;16.80;11.57;;;;;;;;;;5001144;28;20596;-59
2021/12/14 04:13:04;;;;;;;16.17;12.60;;;;;;;;;;4984901;28;20225;-59
2021/12/14 04:15:30;;;;;;;14.50;11.53;;;;;;;;;;4999580;28;21211;-59
2021/12/14 04:17:56;;;;;;;15.90;11.70;;;;;;;;;;4994290;28;20237;-59
2021/12/14 04:20:23;;;;;;;17.17;12.77;;;;;;;;;;5005901;28;20238;-59
2021/12/14 04:22:50;;;;;;;16.20;11.97;;;;;;;;;;5006013;28;20231;-59
2021/12/14 04:25:17;;;;;;;17.73;12.20;;;;;;;;;;4999897;28;20313;-59
2021/12/14 04:27:43;;;;;;;16.50;11.67;;;;;;;;;;4998932;28;21036;-59
2021/12/14 04:30:10;;;;;;;17.40;12.43;;;;;;;;;;5003557;28;20227;-59
2021/12/14 04:32:36;;;;;;;17.87;12.77;;;;;;;;;;5000196;28;20229;-59
2021/12/14 04:35:02;;;;;;;18.53;12.60;;;;;;;;;;4996023;28;20491;-59
2021/12/14 04:37:28;;;;;;;17.87;13.10;;;;;;;;;;4982119;28;20244;-59
2021/12/14 04:40:14;;;;;;;18.77;13.23;;;;;;;;;;4967137;28;20256;-59
2021/12/14 04:51:57;;;;;;;18.47;12.87;;;;;;;;;;4974641;28;20241;-59
2021/12/14 04:54:12;;;;;;;16.90;12.37;;;;;;;;;;4923860;28;22738;-59
2021/12/14 04:56:39;;;;;;;18.53;12.53;;;;;;;;;;4942149;28;20237;-59
2021/12/14 04:59:07;;;;;;;16.77;12.77;;;;;;;;;;4983298;28;20450;-59
2021/12/14 05:01:34;;;;;;;18.37;12.30;;;;;;;;;;4983452;28;20228;-59
2021/12/14 05:04:01;;;;;;;16.13;12.63;;;;;;;;;;4980712;28;20294;-59
2021/12/14 05:06:33;;;;;;;16.23;12.13;;;;;;;;;;4977634;28;20265;-59
2021/12/14 05:09:24;;;;;;;16.83;12.10;;;;;;;;;;4969905;28;20321;-59
2021/12/14 05:11:51;;;;;;;19.43;12.73;;;;;;;;;;4980366;28;20734;-59
2021/12/14 05:14:17;;;;;;;20.50;12.63;;;;;;;;;;4973317;28;20506;-59
2021/12/14 05:16:43;;;;;;;17.93;12.10;;;;;;;;;;4982207;28;20755;-59
2021/12/14 05:19:09;;;;;;;18.83;12.57;;;;;;;;;;4976533;28;20288;-59
2021/12/14 05:21:35;;;;;;;18.40;13.10;;;;;;;;;;4984384;28;20237;-59
2021/12/14 05:24:02;;;;;;;17.30;12.30;;;;;;;;;;4973589;28;20684;-58
2021/12/14 05:26:28;;;;;;;21.30;13.70;;;;;;;;;;4980955;28;20247;-59
2021/12/14 05:28:54;;;;;;;21.63;13.07;;;;;;;;;;4980438;28;20245;-59
2021/12/14 05:31:20;;;;;;;17.97;12.77;;;;;;;;;;4968205;28;20257;-59
2021/12/14 05:33:46;;;;;;;20.33;13.27;;;;;;;;;;4985841;28;20238;-59
2021/12/14 05:36:14;;;;;;;18.73;13.20;;;;;;;;;;4981753;28;20238;-59
2021/12/14 05:43:05;;;;;;;26.17;14.23;;;;;;;;;;4998702;28;20229;-58
2021/12/14 05:43:56;;;;;;;21.23;12.77;;;;;;;;;;5015382;28;20235;-59
2021/12/14 05:46:22;;;;;;;21.73;12.97;;;;;;;;;;4983746;28;20286;-59
2021/12/14 05:48:48;;;;;;;22.93;13.63;;;;;;;;;;4997125;28;20244;-59
2021/12/14 05:51:14;;;;;;;18.63;12.17;;;;;;;;;;5010315;28;20234;-59
2021/12/14 05:53:43;;;;;;;21.53;13.20;;;;;;;;;;5004603;28;20241;-59
2021/12/14 05:56:10;;;;;;;18.70;12.83;;;;;;;;;;5003610;28;20244;-59
2021/12/14 05:58:36;;;;;;;20.20;12.93;;;;;;;;;;4998309;28;20290;-59
2021/12/14 06:01:05;;;;;;;19.20;12.40;;;;;;;;;;5004167;28;20228;-59
2021/12/14 06:03:32;;;;;;;19.00;12.30;;;;;;;;;;5002620;28;20793;-59
2021/12/14 06:05:59;;;;;;;19.77;12.13;;;;;;;;;;5006165;28;20305;-59
2021/12/14 06:08:27;;;;;;;22.17;12.77;;;;;;;;;;4993878;28;20268;-57
2021/12/14 06:10:53;;;;;;;20.63;12.97;;;;;;;;;;5006719;28;20248;-57
2021/12/14 06:13:20;;;;;;;20.60;12.37;;;;;;;;;;4998913;28;20694;-57
2021/12/14 06:15:46;;;;;;;18.53;12.13;;;;;;;;;;4992346;28;20230;-55
2021/12/14 06:18:12;;;;;;;18.90;12.63;;;;;;;;;;5004883;28;20316;-56
2021/12/14 06:20:38;;;;;;;21.13;13.33;;;;;;;;;;5003525;28;20717;-56
2021/12/14 06:23:05;;;;;;;19.93;12.33;;;;;;;;;;4998200;28;20231;-56
2021/12/14 06:25:31;;;;;;;22.10;13.87;;;;;;;;;;5000907;28;20334;-55
2021/12/14 06:27:59;;;;;;;20.93;12.73;;;;;;;;;;4989410;28;20240;-56
2021/12/14 06:30:29;;;;;;;17.17;12.30;;;;;;;;;;4991999;28;20584;-56
2021/12/14 06:32:56;;;;;;;18.17;11.73;;;;;;;;;;4989744;28;20233;-56
2021/12/14 06:35:28;;;;;;;18.93;12.37;;;;;;;;;;4996074;28;20243;-56
2021/12/14 06:40:49;;;;;;;18.33;12.27;;;;;;;;;;4983237;28;20232;-56
2021/12/14 06:43:26;;;;;;;19.87;12.47;;;;;;;;;;4990796;28;20235;-55
2021/12/14 06:45:55;;;;;;;20.20;12.93;;;;;;;;;;4986947;28;20242;-58
2021/12/14 06:48:24;;;;;;;17.47;12.23;;;;;;;;;;5005432;28;20234;-56
2021/12/14 06:50:55;;;;;;;18.63;11.90;;;;;;;;;;4988961;28;20233;-56
2021/12/14 06:53:21;;;;;;;20.37;12.23;;;;;;;;;;4989438;28;20238;-56
2021/12/14 06:55:49;;;;;;;19.47;12.07;;;;;;;;;;4986931;28;20260;-56
2021/12/14 06:58:16;;;;;;;17.60;12.07;;;;;;;;;;4991240;28;20244;-57
2021/12/14 07:00:49;;;;;;;18.70;11.87;;;;;;;;;;4999577;28;20233;-57
2021/12/14 07:03:15;;;;;;;15.10;10.67;;;;;;;;;;4990893;28;20229;-57
2021/12/14 07:05:42;;;;;;;16.50;10.70;;;;;;;;;;4991085;28;20236;-57
2021/12/14 07:08:09;;;;;;;17.97;11.13;;;;;;;;;;4993325;28;20758;-57
2021/12/14 07:10:36;;;;;;;15.63;11.07;;;;;;;;;;4990822;28;20731;-57
2021/12/14 07:13:09;;;;;;;16.37;11.17;;;;;;;;;;4993335;28;20731;-56
2021/12/14 07:15:36;;;;;;;13.80;10.17;;;;;;;;;;4989337;28;20828;-57
2021/12/14 07:18:04;;;;;;;16.47;9.93;;;;;;;;;;4983626;28;20252;-57
2021/12/14 07:20:35;;;;;;;15.53;11.30;;;;;;;;;;4984281;28;20324;-57
2021/12/14 07:23:03;;;;;;;17.80;10.70;;;;;;;;;;4984379;28;20271;-57
2021/12/14 07:25:36;;;;;;;15.87;10.90;;;;;;;;;;4986575;28;20232;-56
2021/12/14 07:28:06;;;;;;;15.00;10.53;;;;;;;;;;4995729;28;21841;-56
2021/12/14 07:30:37;;;;;;;15.93;10.37;;;;;;;;;;4999558;28;20792;-56
2021/12/14 07:33:13;;;;;;;14.43;10.57;;;;;;;;;;5006118;28;20662;-56
2021/12/14 07:35:47;;;;;;;15.87;10.63;;;;;;;;;;4996763;28;21324;-56
2021/12/14 07:38:16;;;;;;;14.10;9.70;;;;;;;;;;5003019;28;20350;-57
2021/12/14 07:40:43;;;;;;;12.60;10.30;;;;;;;;;;4998977;28;20240;-56
2021/12/14 07:43:15;;;;;;;14.33;9.50;;;;;;;;;;5007262;28;20252;-56
2021/12/14 07:45:41;;;;;;;12.47;9.10;;;;;;;;;;5003802;28;20255;-56
2021/12/14 07:48:07;;;;;;;11.87;9.40;;;;;;;;;;5001056;28;20615;-56
2021/12/14 07:50:37;;;;;;;12.97;8.90;;;;;;;;;;5002212;28;20243;-56
2021/12/14 07:53:03;;;;;;;12.53;8.47;;;;;;;;;;4994771;28;20248;-56
2021/12/14 07:55:29;;;;;;;11.90;8.53;;;;;;;;;;5002424;28;20233;-56
2021/12/14 07:57:55;;;;;;;12.93;8.20;;;;;;;;;;5007036;28;20339;-56
2021/12/14 08:00:24;;;;;;;13.47;8.63;;;;;;;;;;4992478;28;20268;-56
2021/12/14 08:02:50;;;;;;;11.73;8.73;;;;;;;;;;5001456;28;21988;-56
2021/12/14 08:05:16;;;;;;;11.50;8.17;;;;;;;;;;4988402;28;21836;-56
2021/12/14 08:07:44;;;;;;;10.63;8.27;;;;;;;;;;4998236;28;20239;-56
2021/12/14 08:10:14;;;;;;;11.17;8.27;;;;;;;;;;5002704;28;20237;-56
2021/12/14 08:12:46;;;;;;;13.37;8.33;;;;;;;;;;5000975;28;20951;-56
2021/12/14 08:15:18;;;;;;;11.07;8.30;;;;;;;;;;4998465;28;20624;-57
2021/12/14 08:17:44;;;;;;;10.40;8.50;;;;;;;;;;4994592;28;20229;-57
2021/12/14 08:20:14;;;;;;;12.93;8.33;;;;;;;;;;4998476;28;20711;-57
2021/12/14 08:22:43;;;;;;;9.63;8.03;;;;;;;;;;4998134;28;20274;-56
2021/12/14 08:25:09;;;;;;;9.80;7.80;;;;;;;;;;5002765;28;20245;-57
2021/12/14 08:27:35;;;;;;;11.60;7.77;;;;;;;;;;5002001;28;20990;-57
2021/12/14 08:30:02;;;;;;;9.70;7.63;;;;;;;;;;4998243;28;20306;-57
2021/12/14 08:32:32;;;;;;;9.80;7.67;;;;;;;;;;4982382;28;20233;-57
2021/12/14 08:34:58;;;;;;;9.93;7.77;;;;;;;;;;4997715;28;20257;-60
2021/12/14 08:37:29;;;;;;;10.33;7.80;;;;;;;;;;4969309;28;20689;-57
2021/12/14 08:39:59;;;;;;;11.80;7.87;;;;;;;;;;4996488;28;20808;-57
2021/12/14 08:42:38;;;;;;;10.23;7.67;;;;;;;;;;5009992;28;20233;-57
2021/12/14 08:45:24;;;;;;;10.77;7.87;;;;;;;;;;5006573;28;20741;-57
2021/12/14 08:47:50;;;;;;;10.70;7.83;;;;;;;;;;5007345;28;20602;-57
2021/12/14 08:50:16;;;;;;;11.93;7.67;;;;;;;;;;4999330;28;20221;-57
2021/12/14 08:52:42;;;;;;;9.40;7.30;;;;;;;;;;5000554;28;20669;-56
2021/12/14 08:55:09;;;;;;;9.90;7.20;;;;;;;;;;5005730;28;20241;-56
2021/12/14 08:57:35;;;;;;;10.63;7.47;;;;;;;;;;4999663;28;20710;-57
2021/12/14 09:00:07;;;;;;;10.23;7.23;;;;;;;;;;5003041;28;20239;-57
2021/12/14 09:02:33;;;;;;;10.70;7.50;;;;;;;;;;4999343;28;20232;-57
2021/12/14 09:05:01;;;;;;;10.10;7.47;;;;;;;;;;4997385;28;20320;-57
2021/12/14 09:07:28;;;;;;;10.70;7.63;;;;;;;;;;4992795;28;20234;-56
2021/12/14 09:09:54;;;;;;;12.13;7.83;;;;;;;;;;5000475;28;20274;-57
2021/12/14 09:12:24;;;;;;;9.30;7.57;;;;;;;;;;5000376;28;20315;-57
2021/12/14 09:14:50;;;;;;;10.57;6.93;;;;;;;;;;4996632;28;20279;-56
2021/12/14 09:17:16;;;;;;;10.57;7.73;;;;;;;;;;5011780;28;20236;-57
2021/12/14 09:19:44;;;;;;;9.20;7.43;;;;;;;;;;4990408;28;20241;-57
2021/12/14 09:22:11;;;;;;;10.60;8.10;;;;;;;;;;5000541;28;20299;-57
2021/12/14 09:24:37;;;;;;;10.03;7.20;;;;;;;;;;5005660;28;20306;-57
2021/12/14 09:27:05;;;;;;;10.37;7.97;;;;;;;;;;5001109;28;21323;-56
2021/12/14 09:29:32;;;;;;;10.43;7.83;;;;;;;;;;5010485;28;20645;-56
2021/12/14 09:31:59;;;;;;;10.63;6.87;;;;;;;;;;5002742;28;20230;-56
2021/12/14 09:34:26;;;;;;;9.13;6.87;;;;;;;;;;5007354;28;21137;-56
2021/12/14 09:36:52;;;;;;;10.53;7.73;;;;;;;;;;4980595;28;21729;-56
2021/12/14 09:39:22;;;;;;;11.40;7.53;;;;;;;;;;4984253;28;20237;-58
2021/12/14 09:41:53;;;;;;;10.63;7.30;;;;;;;;;;4987503;28;20836;-57
2021/12/14 09:44:20;;;;;;;10.03;7.27;;;;;;;;;;4980905;28;20242;-57
2021/12/14 09:46:46;;;;;;;10.63;7.43;;;;;;;;;;4982760;28;20238;-58
2021/12/14 09:49:13;;;;;;;11.60;7.33;;;;;;;;;;4983228;28;20720;-57
2021/12/14 09:51:42;;;;;;;11.17;7.40;;;;;;;;;;4982781;28;20241;-57
2021/12/14 09:54:09;;;;;;;10.40;7.70;;;;;;;;;;4995522;28;20238;-57
2021/12/14 09:56:36;;;;;;;11.63;7.90;;;;;;;;;;4983841;28;20399;-57
2021/12/14 09:59:03;;;;;;;10.83;7.67;;;;;;;;;;4980736;28;20704;-57
2021/12/14 10:01:41;;;;;;;10.60;7.93;;;;;;;;;;4990590;28;20228;-57
2021/12/14 10:04:08;;;;;;;14.67;8.17;;;;;;;;;;4993316;28;20243;-57
2021/12/14 10:06:34;;;;;;;11.17;7.50;;;;;;;;;;4989755;28;20371;-57
2021/12/14 10:09:06;;;;;;;9.90;7.53;;;;;;;;;;4984416;28;20724;-57
2021/12/14 10:11:48;;;;;;;11.13;8.00;;;;;;;;;;4983197;28;20261;-57
2021/12/14 10:14:15;;;;;;;12.67;8.07;;;;;;;;;;4983274;28;20243;-57
2021/12/14 10:16:41;;;;;;;11.97;8.63;;;;;;;;;;4988534;28;20286;-57
2021/12/14 10:19:12;;;;;;;11.73;8.40;;;;;;;;;;4994132;28;20246;-57
2021/12/14 10:21:42;;;;;;;12.37;8.30;;;;;;;;;;4987540;28;20672;-57
2021/12/14 10:24:08;;;;;;;13.13;8.13;;;;;;;;;;4992716;28;20227;-57
2021/12/14 10:26:36;;;;;;;13.03;8.20;;;;;;;;;;4986695;28;20373;-57
2021/12/14 10:29:02;;;;;;;9.93;7.83;;;;;;;;;;4977370;28;20324;-57
2021/12/14 10:31:29;;;;;;;10.73;8.20;;;;;;;;;;4986060;28;20676;-57
2021/12/14 10:33:58;;;;;;;11.73;8.50;;;;;;;;;;4989871;28;21792;-57
2021/12/14 10:36:30;;;;;;;10.87;8.07;;;;;;;;;;4992547;28;20247;-58
2021/12/14 10:39:21;;;;;;;11.43;8.40;;;;;;;;;;5002449;28;20302;-57
2021/12/14 10:44:32;;;;;;;11.57;8.73;;;;;;;;;;4998765;28;20879;-57
2021/12/14 10:46:58;;;;;;;13.13;9.30;;;;;;;;;;5003447;28;20248;-58
2021/12/14 10:49:25;;;;;;;13.50;8.80;;;;;;;;;;5010029;28;20558;-57
2021/12/14 10:51:58;;;;;;;11.33;8.60;;;;;;;;;;5000088;28;20247;-58
2021/12/14 10:54:24;;;;;;;12.23;8.40;;;;;;;;;;5005782;28;20326;-57
2021/12/14 10:56:50;;;;;;;12.00;8.53;;;;;;;;;;5003403;28;20311;-57
2021/12/14 10:59:17;;;;;;;13.00;9.27;;;;;;;;;;5001586;28;20290;-57
2021/12/14 11:01:49;;;;;;;12.23;8.80;;;;;;;;;;4996066;28;20266;-58
2021/12/14 11:04:15;;;;;;;11.53;8.77;;;;;;;;;;5000908;28;20240;-57
2021/12/14 11:06:44;;;;;;;11.27;8.03;;;;;;;;;;4979028;28;20229;-57
2021/12/14 11:11:44;;;;;;;11.97;8.33;;;;;;;;;;5002008;28;20657;-58
2021/12/14 11:14:11;;;;;;;13.50;8.80;;;;;;;;;;5009756;28;20228;-57
2021/12/14 11:19:33;;;;;;;16.00;8.83;;;;;;;;;;5001454;28;20949;-57
2021/12/14 11:22:08;;;;;;;13.03;8.83;;;;;;;;;;5009929;28;20679;-57
2021/12/14 11:24:35;;;;;;;13.63;9.30;;;;;;;;;;5005463;28;20225;-58
2021/12/14 11:27:01;;;;;;;11.40;8.80;;;;;;;;;;5004705;28;20231;-57
2021/12/14 11:29:26;;;;;;;12.60;9.03;;;;;;;;;;4981564;28;20279;-58
2021/12/14 11:31:54;;;;;;;13.00;8.40;;;;;;;;;;5005721;28;20258;-57
2021/12/14 11:34:35;;;;;;;13.13;9.10;;;;;;;;;;4999059;28;20331;-57
2021/12/14 11:37:04;;;;;;;14.07;9.27;;;;;;;;;;5004616;28;20255;-57
2021/12/14 11:39:32;;;;;;;14.10;9.03;;;;;;;;;;4998333;28;20804;-57
2021/12/14 11:41:59;;;;;;;12.43;9.13;;;;;;;;;;5006763;28;20885;-57
2021/12/14 11:44:26;;;;;;;12.83;9.23;;;;;;;;;;5006927;28;20252;-57
2021/12/14 11:47:02;;;;;;;13.67;9.27;;;;;;;;;;4999851;28;20678;-57
2021/12/14 11:49:45;;;;;;;11.20;8.70;;;;;;;;;;4997143;28;20636;-58
2021/12/14 11:52:11;;;;;;;13.13;9.20;;;;;;;;;;4999144;28;20236;-57
2021/12/14 11:54:41;;;;;;;13.00;10.00;;;;;;;;;;5002314;28;20247;-57
2021/12/14 11:57:07;;;;;;;15.47;9.83;;;;;;;;;;5005743;28;21900;-58
2021/12/14 11:59:33;;;;;;;10.40;8.97;;;;;;;;;;5007039;28;20228;-57
2021/12/14 12:02:00;;;;;;;12.90;10.10;;;;;;;;;;4998614;28;20295;-57
2021/12/14 12:04:34;;;;;;;15.70;9.77;;;;;;;;;;5006565;28;20252;-57
2021/12/14 12:09:37;;;;;;;13.83;9.80;;;;;;;;;;5005207;28;20319;-58
2021/12/14 12:12:03;;;;;;;12.03;9.73;;;;;;;;;;5008919;28;20232;-58
2021/12/14 12:14:30;;;;;;;12.13;9.70;;;;;;;;;;5002889;28;20295;-58
2021/12/14 12:17:09;;;;;;;13.47;9.43;;;;;;;;;;5005817;28;20235;-58
2021/12/14 12:19:35;;;;;;;13.37;10.60;;;;;;;;;;5003389;28;20236;-57
2021/12/14 12:22:06;;;;;;;13.43;10.60;;;;;;;;;;4996620;28;20238;-57
2021/12/14 12:24:41;;;;;;;14.43;9.77;;;;;;;;;;5003482;28;20241;-57
2021/12/14 12:27:26;;;;;;;13.83;10.50;;;;;;;;;;5001697;28;20224;-58
2021/12/14 12:30:15;;;;;;;13.27;10.13;;;;;;;;;;4991699;28;20271;-57
2021/12/14 12:32:41;;;;;;;14.03;10.50;;;;;;;;;;4983385;28;20275;-57
2021/12/14 12:35:27;;;;;;;13.70;10.80;;;;;;;;;;4997185;28;20232;-57
2021/12/14 12:37:57;;;;;;;15.17;9.83;;;;;;;;;;4997401;28;20244;-57
2021/12/14 12:40:34;;;;;;;13.20;10.37;;;;;;;;;;4995463;28;20239;-57
2021/12/14 12:43:19;;;;;;;13.23;10.10;;;;;;;;;;4998774;28;20582;-58
2021/12/14 12:45:53;;;;;;;12.87;9.97;;;;;;;;;;4993435;28;20268;-57
2021/12/14 12:48:37;;;;;;;13.03;9.57;;;;;;;;;;4999647;28;20230;-57
2021/12/14 12:51:03;;;;;;;12.57;10.00;;;;;;;;;;4999114;28;20282;-58
2021/12/14 12:53:29;;;;;;;15.43;11.07;;;;;;;;;;4996193;28;20258;-57
2021/12/14 12:56:03;;;;;;;15.77;11.20;;;;;;;;;;5002331;28;20323;-58
2021/12/14 12:58:29;;;;;;;15.43;10.40;;;;;;;;;;5004371;28;20228;-58
2021/12/14 13:00:57;;;;;;;19.13;10.60;;;;;;;;;;5006763;28;20243;-57
2021/12/14 13:03:25;;;;;;;16.03;10.90;;;;;;;;;;5007350;28;20258;-57
2021/12/14 13:06:05;;;;;;;14.70;10.37;;;;;;;;;;5008340;28;20242;-58
2021/12/14 13:08:36;;;;;;;13.37;10.70;;;;;;;;;;5007851;28;20236;-58
2021/12/14 13:11:06;;;;;;;15.53;11.00;;;;;;;;;;5008146;28;20268;-57
2021/12/14 13:13:34;;;;;;;13.43;10.60;;;;;;;;;;5000818;28;20232;-58
2021/12/14 13:16:00;;;;;;;15.20;10.37;;;;;;;;;;5005408;28;20232;-57
2021/12/14 13:18:31;;;;;;;14.43;10.57;;;;;;;;;;5009318;28;20237;-58
2021/12/14 13:20:57;;;;;;;12.67;10.40;;;;;;;;;;4997950;28;20239;-58
2021/12/14 13:23:37;;;;;;;15.20;10.23;;;;;;;;;;4999521;28;20776;-57
2021/12/14 13:26:18;;;;;;;14.37;10.60;;;;;;;;;;4989679;28;20228;-57
2021/12/14 13:28:44;;;;;;;13.70;10.17;;;;;;;;;;4999125;28;20350;-58
2021/12/14 13:31:10;;;;;;;15.23;10.57;;;;;;;;;;5005041;28;20730;-58
2021/12/14 13:33:36;;;;;;;13.67;11.20;;;;;;;;;;5007938;28;20221;-57
2021/12/14 13:36:01;;;;;;;13.73;10.53;;;;;;;;;;5002197;28;20236;-58
2021/12/14 13:38:27;;;;;;;13.93;10.90;;;;;;;;;;5005286;28;20244;-58
2021/12/14 13:40:53;;;;;;;15.67;11.47;;;;;;;;;;5001895;28;20318;-57
2021/12/14 13:43:20;;;;;;;13.80;11.17;;;;;;;;;;5011987;28;20248;-56
2021/12/14 13:45:47;;;;;;;16.43;10.70;;;;;;;;;;5004860;28;20705;-58
2021/12/14 13:48:14;;;;;;;14.77;10.77;;;;;;;;;;5004254;28;20322;-58
2021/12/14 13:50:43;;;;;;;14.83;10.57;;;;;;;;;;4979103;28;20253;-58
2021/12/14 13:53:09;;;;;;;11.77;9.93;;;;;;;;;;4997023;28;20290;-57
2021/12/14 13:55:37;;;;;;;14.77;10.57;;;;;;;;;;4999775;28;20229;-57
2021/12/14 13:58:16;;;;;;;14.77;10.07;;;;;;;;;;4991208;28;20236;-58
2021/12/14 14:00:53;;;;;;;15.40;10.77;;;;;;;;;;5002633;28;20303;-57
2021/12/14 14:03:22;;;;;;;15.43;11.43;;;;;;;;;;4998530;28;20239;-58
2021/12/14 14:05:48;;;;;;;14.03;10.67;;;;;;;;;;5004959;28;20237;-57
2021/12/14 14:08:16;;;;;;;12.90;10.63;;;;;;;;;;4978578;28;20232;-58
2021/12/14 14:10:43;;;;;;;15.67;10.37;;;;;;;;;;4975794;28;20311;-58
2021/12/14 14:13:10;;;;;;;12.80;10.27;;;;;;;;;;5006150;28;20240;-58
2021/12/14 14:15:37;;;;;;;15.87;11.30;;;;;;;;;;5001600;28;22181;-58
2021/12/14 14:18:03;;;;;;;13.13;9.93;;;;;;;;;;4998458;28;20851;-58
2021/12/14 14:20:32;;;;;;;11.93;9.70;;;;;;;;;;5001575;28;20728;-57
2021/12/14 14:23:27;;;;;;;12.70;10.27;;;;;;;;;;5005615;28;20251;-58
2021/12/14 14:26:00;;;;;;;14.20;10.93;;;;;;;;;;4983405;28;20245;-57
2021/12/14 14:28:27;;;;;;;14.00;10.87;;;;;;;;;;5002337;28;20240;-57
2021/12/14 14:30:56;;;;;;;14.17;11.40;;;;;;;;;;4994837;28;20827;-57
2021/12/14 14:33:30;;;;;;;13.57;10.70;;;;;;;;;;4991140;28;20278;-58
2021/12/14 14:36:15;;;;;;;14.43;10.87;;;;;;;;;;4980963;28;20229;-58
2021/12/14 14:38:44;;;;;;;14.17;10.80;;;;;;;;;;4973179;28;20242;-58
2021/12/14 14:41:09;;;;;;;12.50;9.90;;;;;;;;;;4949023;28;20239;-57
2021/12/14 14:44:14;;;;;;;15.20;10.63;;;;;;;;;;4959631;28;20879;-57
2021/12/14 14:46:40;;;;;;;11.50;9.87;;;;;;;;;;4919272;28;20768;-57
2021/12/14 14:49:10;;;;;;;13.67;10.80;;;;;;;;;;4921641;28;20308;-58
2021/12/14 14:51:50;;;;;;;16.23;10.63;;;;;;;;;;4945537;28;20245;-58
2021/12/14 14:54:34;;;;;;;14.33;11.07;;;;;;;;;;4971412;28;21011;-58
2021/12/14 14:57:00;;;;;;;14.00;11.17;;;;;;;;;;4969684;28;20684;-57
2021/12/14 14:59:26;;;;;;;14.10;10.77;;;;;;;;;;4963359;28;20776;-58
2021/12/14 15:01:52;;;;;;;15.10;10.60;;;;;;;;;;4967749;28;20238;-58
2021/12/14 15:04:19;;;;;;;14.17;10.90;;;;;;;;;;4986935;28;20293;-58
2021/12/14 15:06:45;;;;;;;14.03;10.90;;;;;;;;;;4971951;28;20633;-58
2021/12/14 15:09:12;;;;;;;14.70;10.80;;;;;;;;;;4990392;28;20238;-57
2021/12/14 15:11:41;;;;;;;15.20;11.10;;;;;;;;;;4982637;28;20230;-58
2021/12/14 15:14:09;;;;;;;15.20;10.40;;;;;;;;;;4989319;28;20308;-58
2021/12/14 15:16:46;;;;;;;15.00;10.27;;;;;;;;;;4987305;28;20261;-57